createdAt,value
2018-11-04T00:01:53.611Z,73.43
2018-11-04T00:04:21.749Z,73.06
2018-11-04T00:06:49.370Z,73.45
2018-11-04T00:09:17.251Z,73.35
2018-11-04T00:11:44.836Z,73.99
2018-11-04T00:14:12.817Z,73.86
2018-11-04T00:16:40.485Z,73.67
2018-11-04T00:19:08.363Z,72.88
2018-11-04T00:21:36.238Z,73.43
2018-11-04T00:24:04.494Z,72.89
2018-11-04T00:26:32.099Z,73.84
2018-11-04T00:28:59.663Z,73.96
2018-11-04T00:31:27.579Z,75.27
2018-11-04T00:33:55.105Z,73.85
2018-11-04T00:36:22.680Z,74.67
2018-11-04T00:38:50.276Z,74.60
2018-11-04T00:41:17.894Z,74.03
2018-11-04T00:43:45.493Z,74.93
2018-11-04T00:46:13.242Z,73.94
2018-11-04T00:48:40.914Z,74.43
2018-11-04T00:51:08.461Z,74.54
2018-11-04T00:53:36.076Z,75.14
2018-11-04T00:56:03.631Z,74.79
2018-11-04T00:58:31.227Z,74.55
2018-11-04T01:00:58.812Z,74.11
2018-11-04T01:03:26.516Z,73.99
2018-11-04T01:05:54.240Z,73.58
2018-11-04T01:08:22.014Z,73.82
2018-11-04T01:10:49.563Z,73.57
2018-11-04T01:13:17.146Z,73.55
2018-11-04T01:15:45.817Z,73.86
2018-11-04T01:18:15.438Z,73.69
2018-11-04T01:20:43.040Z,73.82
2018-11-04T01:23:10.603Z,74.04
2018-11-04T01:25:38.142Z,74.12
2018-11-04T01:28:05.710Z,74.14
2018-11-04T01:30:33.237Z,73.99
2018-11-04T01:33:00.830Z,74.50
2018-11-04T01:35:28.432Z,74.86
2018-11-04T01:37:56.154Z,74.36
2018-11-04T01:40:23.772Z,74.18
2018-11-04T01:42:51.428Z,73.96
2018-11-04T01:45:19.062Z,74.00
2018-11-04T01:47:46.640Z,73.80
2018-11-04T01:50:14.313Z,73.87
2018-11-04T01:52:41.895Z,74.18
2018-11-04T01:55:09.481Z,74.27
2018-11-04T01:57:37.042Z,73.85
2018-11-04T02:00:04.632Z,73.94
2018-11-04T02:02:32.147Z,74.02
2018-11-04T02:04:59.735Z,73.57
2018-11-04T02:07:27.280Z,74.00
2018-11-04T02:09:54.869Z,74.00
2018-11-04T02:12:22.406Z,74.36
2018-11-04T02:14:49.969Z,76.53
2018-11-04T02:17:17.539Z,76.61
2018-11-04T02:19:45.138Z,76.29
2018-11-04T02:22:12.713Z,75.90
2018-11-04T02:24:40.250Z,76.36
2018-11-04T02:27:07.808Z,75.61
2018-11-04T02:29:35.348Z,75.13
2018-11-04T02:32:02.958Z,75.39
2018-11-04T02:34:30.529Z,75.43
2018-11-04T02:36:58.255Z,74.94
2018-11-04T02:39:25.837Z,75.26
2018-11-04T02:41:53.383Z,75.22
2018-11-04T02:44:20.993Z,75.16
2018-11-04T02:46:48.624Z,74.98
2018-11-04T02:49:16.165Z,75.57
2018-11-04T02:51:43.683Z,75.15
2018-11-04T02:54:11.367Z,74.92
2018-11-04T02:56:39.137Z,74.93
2018-11-04T02:59:06.670Z,74.46
2018-11-04T03:01:34.228Z,74.77
2018-11-04T03:04:01.788Z,74.82
2018-11-04T03:06:29.432Z,74.80
2018-11-04T03:08:57.067Z,74.48
2018-11-04T03:11:24.607Z,74.77
2018-11-04T03:13:52.268Z,74.61
2018-11-04T03:16:20.691Z,74.96
2018-11-04T03:18:48.393Z,75.21
2018-11-04T03:21:15.925Z,75.47
2018-11-04T03:23:43.658Z,75.33
2018-11-04T03:26:11.200Z,75.52
2018-11-04T03:28:38.908Z,75.00
2018-11-04T03:31:06.629Z,74.61
2018-11-04T03:33:34.548Z,75.70
2018-11-04T03:36:02.151Z,75.93
2018-11-04T03:38:29.735Z,74.90
2018-11-04T03:40:57.364Z,75.28
2018-11-04T03:43:24.875Z,75.55
2018-11-04T03:45:52.436Z,76.25
2018-11-04T03:48:20.050Z,75.50
2018-11-04T03:50:47.586Z,75.38
2018-11-04T03:53:15.346Z,75.76
2018-11-04T03:55:43.023Z,76.00
2018-11-04T03:58:10.616Z,75.47
2018-11-04T04:00:38.248Z,76.33
2018-11-04T04:03:05.797Z,77.06
2018-11-04T04:05:33.419Z,76.90
2018-11-04T04:08:00.962Z,75.92
2018-11-04T04:10:29.273Z,75.59
2018-11-04T04:12:56.853Z,75.91
2018-11-04T04:15:25.494Z,76.40
2018-11-04T04:17:53.066Z,76.32
2018-11-04T04:20:20.666Z,76.43
2018-11-04T04:22:48.238Z,75.82
2018-11-04T04:25:15.813Z,75.81
2018-11-04T04:27:43.356Z,75.65
2018-11-04T04:30:10.940Z,76.35
2018-11-04T04:32:38.584Z,76.04
2018-11-04T04:35:06.180Z,75.93
2018-11-04T04:37:33.831Z,75.86
2018-11-04T04:40:01.400Z,76.34
2018-11-04T04:42:29.288Z,75.91
2018-11-04T04:44:56.974Z,75.82
2018-11-04T04:47:24.600Z,75.83
2018-11-04T04:49:52.125Z,75.66
2018-11-04T04:52:19.705Z,76.00
2018-11-04T04:54:47.275Z,76.84
2018-11-04T04:57:14.868Z,76.37
2018-11-04T04:59:42.464Z,75.84
2018-11-04T05:02:10.054Z,75.73
2018-11-04T05:04:37.748Z,75.47
2018-11-04T05:07:05.320Z,77.29
2018-11-04T05:09:32.987Z,76.13
2018-11-04T05:12:00.526Z,75.65
2018-11-04T05:14:28.235Z,75.77
2018-11-04T05:16:55.804Z,75.65
2018-11-04T05:19:23.337Z,75.90
2018-11-04T05:21:50.906Z,76.45
2018-11-04T05:24:18.687Z,75.56
2018-11-04T05:26:46.209Z,75.79
2018-11-04T05:29:13.891Z,76.40
2018-11-04T05:31:41.461Z,75.86
2018-11-04T05:34:09.025Z,75.59
2018-11-04T05:36:36.599Z,75.78
2018-11-04T05:39:04.150Z,75.34
2018-11-04T05:41:31.669Z,75.61
2018-11-04T05:43:59.240Z,75.40
2018-11-04T05:46:26.866Z,75.15
2018-11-04T05:48:54.423Z,75.67
2018-11-04T05:51:21.973Z,75.91
2018-11-04T05:53:49.545Z,76.02
2018-11-04T05:56:17.098Z,75.64
2018-11-04T05:58:44.687Z,76.78
2018-11-04T06:01:12.377Z,75.99
2018-11-04T06:03:40.363Z,76.32
2018-11-04T06:06:07.937Z,76.01
2018-11-04T06:08:35.491Z,76.20
2018-11-04T06:11:03.131Z,75.67
2018-11-04T06:13:30.680Z,76.28
2018-11-04T06:15:58.391Z,75.70
2018-11-04T06:18:25.917Z,76.96
2018-11-04T06:20:53.909Z,75.85
2018-11-04T06:23:21.466Z,75.21
2018-11-04T06:25:49.042Z,76.06
2018-11-04T06:28:16.590Z,75.70
2018-11-04T06:30:44.347Z,76.20
2018-11-04T06:33:11.877Z,75.51
2018-11-04T06:35:39.439Z,76.73
2018-11-04T06:38:06.999Z,75.67
2018-11-04T06:40:34.800Z,75.17
2018-11-04T06:43:02.349Z,75.63
2018-11-04T06:45:29.913Z,75.99
2018-11-04T06:47:57.507Z,75.41
2018-11-04T06:50:25.096Z,75.15
2018-11-04T06:52:52.714Z,76.17
2018-11-04T06:55:20.268Z,75.59
2018-11-04T06:57:47.826Z,75.19
2018-11-04T07:00:15.379Z,75.04
2018-11-04T07:02:43.124Z,76.65
2018-11-04T07:05:11.246Z,75.55
2018-11-04T07:07:42.637Z,74.95
2018-11-04T07:10:10.725Z,75.52
2018-11-04T07:12:38.726Z,75.50
2018-11-04T07:15:06.293Z,75.94
2018-11-04T07:17:33.920Z,75.57
2018-11-04T07:20:01.539Z,75.00
2018-11-04T07:22:29.142Z,75.12
2018-11-04T07:24:56.742Z,75.94
2018-11-04T07:27:24.368Z,76.37
2018-11-04T07:29:52.239Z,75.43
2018-11-04T07:32:20.010Z,76.86
2018-11-04T07:34:47.685Z,76.09
2018-11-04T07:37:15.900Z,77.12
2018-11-04T07:39:43.866Z,76.52
2018-11-04T07:42:11.705Z,76.80
2018-11-04T07:44:39.354Z,75.97
2018-11-04T07:47:06.984Z,76.16
2018-11-04T07:49:34.670Z,75.90
2018-11-04T07:52:02.311Z,76.75
2018-11-04T07:54:30.134Z,76.47
2018-11-04T07:56:58.057Z,76.58
2018-11-04T07:59:25.697Z,78.20
2018-11-04T08:01:53.676Z,77.41
2018-11-04T08:04:21.300Z,76.12
2018-11-04T08:06:50.361Z,76.31
2018-11-04T08:09:18.570Z,76.05
2018-11-04T08:11:46.354Z,77.05
2018-11-04T08:14:13.934Z,75.39
2018-11-04T08:16:41.895Z,75.54
2018-11-04T08:19:09.595Z,75.63
2018-11-04T08:21:37.243Z,77.01
2018-11-04T08:24:05.032Z,75.64
2018-11-04T08:26:32.766Z,76.15
2018-11-04T08:29:00.538Z,76.34
2018-11-04T08:31:28.245Z,75.30
2018-11-04T08:33:56.037Z,75.04
2018-11-04T08:36:23.841Z,75.53
2018-11-04T08:38:51.423Z,75.88
2018-11-04T08:41:19.085Z,77.18
2018-11-04T08:43:46.844Z,75.84
2018-11-04T08:46:14.672Z,76.57
2018-11-04T08:48:42.544Z,75.58
2018-11-04T08:51:10.098Z,76.69
2018-11-04T08:53:37.702Z,76.58
2018-11-04T08:56:05.268Z,75.69
2018-11-04T08:58:32.834Z,75.99
2018-11-04T09:01:00.368Z,75.41
2018-11-04T09:03:27.988Z,75.14
2018-11-04T09:05:55.519Z,76.71
2018-11-04T09:08:23.051Z,75.85
2018-11-04T09:10:50.700Z,75.49
2018-11-04T09:13:18.444Z,75.25
2018-11-04T09:15:46.000Z,75.12
2018-11-04T09:18:13.569Z,74.89
2018-11-04T09:20:41.102Z,74.95
2018-11-04T09:23:08.709Z,75.22
2018-11-04T09:25:36.277Z,75.39
2018-11-04T09:28:03.866Z,75.78
2018-11-04T09:30:31.534Z,76.02
2018-11-04T09:32:59.065Z,74.82
2018-11-04T09:35:26.995Z,75.38
2018-11-04T09:37:54.404Z,75.49
2018-11-04T09:40:21.938Z,75.09
2018-11-04T09:42:49.517Z,75.11
2018-11-04T09:45:17.083Z,75.54
2018-11-04T09:47:44.599Z,76.44
2018-11-04T09:50:12.144Z,75.45
2018-11-04T09:52:39.736Z,74.97
2018-11-04T09:55:07.407Z,75.42
2018-11-04T09:57:35.143Z,75.00
2018-11-04T10:00:02.994Z,75.08
2018-11-04T10:02:30.665Z,75.59
2018-11-04T10:04:58.311Z,76.03
2018-11-04T10:07:25.894Z,75.70
2018-11-04T10:09:53.691Z,75.31
2018-11-04T10:12:21.424Z,75.98
2018-11-04T10:14:49.010Z,76.04
2018-11-04T10:17:16.560Z,75.83
2018-11-04T10:19:44.305Z,74.87
2018-11-04T10:22:11.739Z,75.34
2018-11-04T10:24:39.325Z,74.68
2018-11-04T10:27:06.840Z,75.31
2018-11-04T10:29:34.382Z,75.20
2018-11-04T10:32:01.980Z,74.97
2018-11-04T10:34:29.576Z,74.79
2018-11-04T10:36:57.099Z,74.67
2018-11-04T10:39:24.665Z,74.67
2018-11-04T10:41:52.254Z,74.40
2018-11-04T10:44:19.855Z,74.88
2018-11-04T10:46:47.529Z,75.00
2018-11-04T10:49:15.231Z,74.34
2018-11-04T10:51:42.815Z,75.25
2018-11-04T10:54:10.341Z,75.74
2018-11-04T10:56:37.881Z,75.26
2018-11-04T10:59:05.930Z,75.32
2018-11-04T11:01:33.524Z,75.14
2018-11-04T11:04:01.174Z,74.53
2018-11-04T11:06:28.889Z,74.33
2018-11-04T11:08:56.422Z,74.67
2018-11-04T11:11:23.999Z,74.50
2018-11-04T11:13:51.541Z,74.39
2018-11-04T11:16:19.366Z,74.58
2018-11-04T11:18:47.132Z,75.13
2018-11-04T11:21:14.904Z,74.75
2018-11-04T11:23:42.682Z,74.61
2018-11-04T11:26:10.261Z,74.54
2018-11-04T11:28:37.811Z,74.28
2018-11-04T11:31:05.377Z,74.74
2018-11-04T11:33:32.974Z,74.59
2018-11-04T11:36:00.513Z,74.87
2018-11-04T11:38:28.144Z,74.34
2018-11-04T11:40:59.137Z,74.37
2018-11-04T11:43:26.758Z,74.43
2018-11-04T11:45:54.379Z,74.23
2018-11-04T11:48:21.997Z,74.10
2018-11-04T11:50:49.591Z,74.05
2018-11-04T11:53:17.200Z,74.25
2018-11-04T11:55:44.835Z,73.55
2018-11-04T11:58:12.366Z,74.11
2018-11-04T12:00:40.121Z,75.91
2018-11-04T12:03:07.705Z,75.89
2018-11-04T12:05:35.327Z,73.75
2018-11-04T12:08:02.903Z,73.24
2018-11-04T12:10:30.558Z,73.46
2018-11-04T12:12:58.097Z,73.46
2018-11-04T12:15:25.673Z,73.30
2018-11-04T12:17:53.309Z,73.16
2018-11-04T12:20:20.870Z,72.95
2018-11-04T12:22:48.664Z,74.05
2018-11-04T12:25:16.541Z,73.83
2018-11-04T12:27:44.125Z,73.36
2018-11-04T12:30:11.745Z,73.25
2018-11-04T12:32:39.324Z,73.80
2018-11-04T12:35:06.967Z,73.19
2018-11-04T12:37:34.545Z,73.34
2018-11-04T12:40:02.197Z,73.45
2018-11-04T12:42:29.960Z,73.30
2018-11-04T12:44:57.571Z,73.40
2018-11-04T12:47:25.088Z,73.46
2018-11-04T12:49:52.618Z,73.52
2018-11-04T12:52:20.508Z,73.44
2018-11-04T12:54:48.028Z,74.02
2018-11-04T12:57:15.608Z,73.16
2018-11-04T12:59:43.173Z,72.77
2018-11-04T13:02:10.947Z,72.70
2018-11-04T13:04:38.408Z,72.71
2018-11-04T13:07:06.006Z,72.52
2018-11-04T13:09:33.717Z,72.55
2018-11-04T13:12:01.283Z,72.74
2018-11-04T13:14:28.825Z,72.44
2018-11-04T13:16:56.552Z,72.77
2018-11-04T13:19:24.125Z,72.52
2018-11-04T13:21:51.782Z,72.58
2018-11-04T13:24:19.304Z,72.55
2018-11-04T13:26:46.894Z,72.12
2018-11-04T13:29:14.432Z,72.50
2018-11-04T13:31:42.013Z,72.13
2018-11-04T13:34:09.597Z,72.63
2018-11-04T13:36:37.140Z,72.30
2018-11-04T13:39:04.741Z,72.50
2018-11-04T13:41:32.343Z,72.26
2018-11-04T13:43:59.992Z,72.44
2018-11-04T13:46:27.574Z,72.80
2018-11-04T13:48:55.131Z,72.02
2018-11-04T13:51:22.815Z,71.94
2018-11-04T13:53:50.438Z,72.28
2018-11-04T13:56:18.087Z,72.28
2018-11-04T13:58:45.690Z,73.19
2018-11-04T14:01:13.291Z,72.07
2018-11-04T14:03:40.834Z,72.30
2018-11-04T14:06:08.420Z,72.06
2018-11-04T14:08:35.960Z,72.17
2018-11-04T14:11:03.506Z,72.39
2018-11-04T14:13:31.131Z,72.12
2018-11-04T14:15:58.699Z,71.73
2018-11-04T14:18:26.234Z,71.74
2018-11-04T14:20:59.831Z,71.53
2018-11-04T14:31:22.444Z,71.68
2018-11-04T14:33:50.188Z,71.74
2018-11-04T14:36:17.761Z,71.44
2018-11-04T14:38:45.316Z,71.42
2018-11-04T14:41:12.926Z,71.33
2018-11-04T14:43:45.466Z,71.42
2018-11-04T14:46:13.041Z,71.53
2018-11-04T14:48:40.767Z,71.80
2018-11-04T14:51:22.173Z,71.44
2018-11-04T14:59:23.424Z,71.55
2018-11-04T15:01:51.066Z,71.26
2018-11-04T15:04:18.566Z,72.28
2018-11-04T15:06:46.178Z,71.87
2018-11-04T15:09:19.493Z,71.46
2018-11-04T15:14:38.868Z,71.90
2018-11-04T15:17:06.445Z,72.51
2018-11-04T15:19:34.048Z,71.81
2018-11-04T15:22:01.635Z,71.91
2018-11-04T15:24:29.217Z,71.99
2018-11-04T15:26:56.803Z,71.48
2018-11-04T15:29:24.376Z,71.68
2018-11-04T15:31:51.915Z,71.53
2018-11-04T15:34:19.577Z,71.36
2018-11-04T15:36:47.087Z,71.13
2018-11-04T15:39:14.670Z,71.95
2018-11-04T15:41:42.259Z,71.62
2018-11-04T15:44:09.805Z,71.44
2018-11-04T15:46:37.383Z,71.99
2018-11-04T15:49:05.020Z,72.22
2018-11-04T15:51:33.241Z,72.05
2018-11-04T15:54:01.929Z,72.53
2018-11-04T15:56:29.989Z,72.10
2018-11-04T15:58:58.421Z,71.79
2018-11-04T16:01:26.260Z,72.03
2018-11-04T16:03:53.943Z,71.75
2018-11-04T16:06:21.552Z,71.45
2018-11-04T16:08:49.115Z,71.44
2018-11-04T16:11:16.971Z,71.28
2018-11-04T16:13:44.628Z,71.15
2018-11-04T16:16:12.353Z,71.23
2018-11-04T16:18:40.094Z,71.08
2018-11-04T16:21:07.670Z,71.13
2018-11-04T16:23:35.713Z,71.33
2018-11-04T16:26:03.634Z,71.40
2018-11-04T16:28:31.340Z,71.46
2018-11-04T16:30:58.942Z,71.50
2018-11-04T16:33:26.686Z,71.76
2018-11-04T16:35:54.211Z,71.63
2018-11-04T16:38:22.845Z,71.63
2018-11-04T16:40:50.419Z,71.57
2018-11-04T16:43:18.470Z,71.55
2018-11-04T16:45:46.240Z,72.08
2018-11-04T16:48:14.071Z,71.79
2018-11-04T16:50:46.171Z,71.60
2018-11-04T16:53:14.655Z,71.77
2018-11-04T17:01:04.233Z,72.22
2018-11-04T17:03:34.163Z,72.41
2018-11-04T17:06:01.827Z,72.58
2018-11-04T17:08:29.423Z,72.36
2018-11-04T17:10:57.047Z,72.39
2018-11-04T17:13:24.622Z,72.16
2018-11-04T17:15:52.313Z,71.89
2018-11-04T17:18:20.028Z,71.78
2018-11-04T17:20:47.566Z,71.73
2018-11-04T17:23:15.179Z,71.88
2018-11-04T17:25:42.802Z,72.34
2018-11-04T17:28:10.401Z,72.01
2018-11-04T17:30:38.024Z,71.87
2018-11-04T17:33:05.766Z,71.75
2018-11-04T17:35:33.348Z,72.06
2018-11-04T17:38:00.977Z,71.81
2018-11-04T17:40:28.528Z,71.98
2018-11-04T17:42:56.209Z,72.01
2018-11-04T17:45:23.775Z,72.97
2018-11-04T17:47:51.364Z,72.80
2018-11-04T17:50:18.903Z,72.67
2018-11-04T17:52:46.460Z,72.14
2018-11-04T17:55:14.018Z,73.41
2018-11-04T17:57:41.541Z,73.59
2018-11-04T18:00:09.129Z,72.85
2018-11-04T18:02:36.812Z,72.65
2018-11-04T18:05:04.407Z,72.48
2018-11-04T18:07:32.178Z,72.68
2018-11-04T18:09:59.832Z,72.18
2018-11-04T18:12:27.569Z,72.09
2018-11-04T18:14:55.294Z,71.92
2018-11-04T18:17:22.866Z,71.95
2018-11-04T18:19:50.604Z,72.14
2018-11-04T18:22:18.364Z,72.07
2018-11-04T18:24:45.903Z,71.99
2018-11-04T18:27:13.490Z,72.76
2018-11-04T18:29:41.046Z,72.34
2018-11-04T18:32:08.692Z,72.61
2018-11-04T18:34:36.195Z,72.33
2018-11-04T18:37:03.772Z,72.11
2018-11-04T18:39:31.285Z,72.77
2018-11-04T18:41:58.906Z,72.32
2018-11-04T18:44:26.510Z,72.04
2018-11-04T18:46:54.026Z,71.91
2018-11-04T18:49:21.572Z,73.16
2018-11-04T18:51:49.331Z,72.43
2018-11-04T18:54:16.895Z,72.29
2018-11-04T18:56:44.425Z,73.07
2018-11-04T18:59:12.067Z,72.92
2018-11-04T19:01:39.579Z,73.25
2018-11-04T19:04:07.131Z,72.56
2018-11-04T19:06:34.747Z,73.08
2018-11-04T19:09:02.290Z,73.06
2018-11-04T19:11:30.004Z,73.41
2018-11-04T19:13:57.708Z,73.50
2018-11-04T19:16:25.529Z,73.08
2018-11-04T19:18:53.390Z,72.76
2018-11-04T19:21:20.989Z,72.60
2018-11-04T19:23:48.555Z,73.58
2018-11-04T19:26:16.317Z,72.85
2018-11-04T19:28:44.490Z,72.33
2018-11-04T19:31:12.214Z,72.51
2018-11-04T19:33:43.388Z,72.26
2018-11-04T19:36:11.003Z,73.61
2018-11-04T19:38:38.557Z,72.92
2018-11-04T19:41:06.186Z,72.55
2018-11-04T19:43:33.779Z,73.08
2018-11-04T19:46:01.322Z,73.11
2018-11-04T19:48:30.134Z,72.91
2018-11-04T19:50:57.936Z,72.81
2018-11-04T19:53:25.683Z,72.81
2018-11-04T19:55:55.661Z,72.55
2018-11-04T19:58:23.325Z,72.64
2018-11-04T20:00:54.730Z,72.90
2018-11-04T20:03:22.318Z,72.83
2018-11-04T20:05:50.016Z,72.93
2018-11-04T20:08:17.582Z,72.81
2018-11-04T20:10:46.549Z,72.83
2018-11-04T20:13:14.228Z,72.74
2018-11-04T20:15:41.776Z,72.85
2018-11-04T20:18:09.353Z,72.71
2018-11-04T20:20:36.936Z,72.95
2018-11-04T20:23:04.519Z,73.32
2018-11-04T20:25:37.711Z,73.38
2018-11-04T20:28:06.623Z,73.68
2018-11-04T20:30:34.153Z,73.72
2018-11-04T20:33:01.725Z,73.54
2018-11-04T20:35:29.276Z,73.39
2018-11-04T20:37:56.860Z,73.29
2018-11-04T20:40:39.285Z,73.33
2018-11-04T20:43:06.897Z,73.33
2018-11-04T20:45:34.425Z,73.23
2018-11-04T20:48:02.044Z,73.44
2018-11-04T20:50:46.249Z,73.29
2018-11-04T20:53:14.420Z,72.93
2018-11-04T20:55:42.225Z,73.33
2018-11-04T20:58:09.869Z,73.69
2018-11-04T21:00:37.432Z,73.33
2018-11-04T21:03:09.628Z,73.27
2018-11-04T21:05:37.179Z,73.27
2018-11-04T21:08:04.793Z,73.16
2018-11-04T21:10:32.344Z,73.23
2018-11-04T21:13:00.117Z,73.58
2018-11-04T21:15:27.680Z,73.36
2018-11-04T21:17:55.442Z,73.20
2018-11-04T21:20:23.069Z,73.34
2018-11-04T21:22:50.730Z,72.94
2018-11-04T21:25:18.347Z,72.37
2018-11-04T21:27:45.924Z,73.08
2018-11-04T21:30:13.668Z,72.74
2018-11-04T21:32:41.237Z,73.02
2018-11-04T21:35:08.791Z,73.02
2018-11-04T21:37:36.367Z,73.77
2018-11-04T21:40:04.169Z,73.35
2018-11-04T21:42:32.147Z,73.56
2018-11-04T21:44:59.712Z,75.65
2018-11-04T21:47:29.260Z,73.97
2018-11-04T21:49:56.856Z,73.84
2018-11-04T21:52:24.391Z,73.18
2018-11-04T21:54:53.931Z,73.50
2018-11-04T21:57:21.478Z,73.38
2018-11-04T21:59:49.057Z,73.51
2018-11-04T22:02:16.851Z,73.77
2018-11-04T22:04:44.773Z,73.68
2018-11-04T22:07:12.388Z,73.30
2018-11-04T22:09:39.948Z,73.21
2018-11-04T22:12:07.523Z,73.19
2018-11-04T22:14:35.100Z,72.88
2018-11-04T22:17:03.682Z,72.99
2018-11-04T22:19:31.272Z,72.83
2018-11-04T22:21:58.799Z,72.75
2018-11-04T22:24:26.356Z,72.84
2018-11-04T22:26:53.923Z,73.35
2018-11-04T22:29:21.466Z,73.12
2018-11-04T22:31:48.989Z,73.29
2018-11-04T22:34:16.560Z,73.62
2018-11-04T22:36:44.200Z,73.67
2018-11-04T22:39:11.701Z,73.51
2018-11-04T22:41:39.278Z,73.54
2018-11-04T22:44:06.984Z,73.68
2018-11-04T22:46:34.758Z,73.61
2018-11-04T22:49:02.294Z,72.63
2018-11-04T22:51:29.989Z,72.32
2018-11-04T22:53:57.562Z,72.51
2018-11-04T22:56:25.124Z,72.87
2018-11-04T22:58:52.700Z,73.11
2018-11-04T23:01:20.263Z,73.38
2018-11-04T23:03:47.878Z,73.43
2018-11-04T23:06:15.404Z,73.38
2018-11-04T23:08:43.093Z,72.92
2018-11-04T23:11:10.700Z,72.75
2018-11-04T23:13:38.346Z,72.63
2018-11-04T23:16:05.876Z,73.79
2018-11-04T23:18:33.663Z,73.98
2018-11-04T23:21:01.145Z,73.60
2018-11-04T23:23:28.684Z,73.20
2018-11-04T23:25:56.255Z,73.34
2018-11-04T23:28:24.032Z,72.75
2018-11-04T23:30:51.543Z,73.66
2018-11-04T23:33:19.142Z,73.44
2018-11-04T23:35:49.525Z,73.93
2018-11-04T23:38:17.067Z,74.32
2018-11-04T23:40:44.627Z,74.18
2018-11-04T23:43:12.190Z,74.05
2018-11-04T23:45:39.905Z,74.01
2018-11-04T23:48:07.467Z,73.71
2018-11-04T23:50:35.093Z,73.25
2018-11-04T23:53:02.675Z,72.84
2018-11-04T23:55:30.266Z,72.96
2018-11-04T23:57:57.852Z,72.37
